sensor_id;sensor_type;location;lat;lon;timestamp;pressure;altitude;pressure_sealevel;temperature;humidity
65359;BME280;52491;45.900;6.346;2023-06-22T00:02:08;93864.44;;;28.17;36.63
65359;BME280;52491;45.900;6.346;2023-06-22T00:04:34;93866.34;;;28.17;36.40
65359;BME280;52491;45.900;6.346;2023-06-22T00:06:59;93859.09;;;28.17;36.64
65359;BME280;52491;45.900;6.346;2023-06-22T00:09:25;93849.44;;;28.16;36.70
65359;BME280;52491;45.900;6.346;2023-06-22T00:11:50;93846.78;;;28.16;36.65
65359;BME280;52491;45.900;6.346;2023-06-22T00:14:16;93856.69;;;28.16;36.57
65359;BME280;52491;45.900;6.346;2023-06-22T00:16:41;93847.03;;;28.15;36.63
65359;BME280;52491;45.900;6.346;2023-06-22T00:19:08;93843.56;;;28.14;36.58
65359;BME280;52491;45.900;6.346;2023-06-22T00:21:36;93844.38;;;28.15;36.54
65359;BME280;52491;45.900;6.346;2023-06-22T00:24:02;93848.94;;;28.14;36.58
65359;BME280;52491;45.900;6.346;2023-06-22T00:26:28;93843.56;;;28.14;36.47
65359;BME280;52491;45.900;6.346;2023-06-22T00:28:54;93839.31;;;28.13;36.58
65359;BME280;52491;45.900;6.346;2023-06-22T00:31:19;93837.41;;;28.14;36.37
65359;BME280;52491;45.900;6.346;2023-06-22T00:33:45;93827.78;;;28.13;36.45
65359;BME280;52491;45.900;6.346;2023-06-22T00:36:10;93821.63;;;28.12;36.39
65359;BME280;52491;45.900;6.346;2023-06-22T00:38:38;93815.47;;;28.11;36.41
65359;BME280;52491;45.900;6.346;2023-06-22T00:41:05;93805.84;;;28.10;36.12
65359;BME280;52491;45.900;6.346;2023-06-22T00:43:31;93800.47;;;28.10;36.28
65359;BME280;52491;45.900;6.346;2023-06-22T00:45:56;93795.38;;;28.09;36.37
65359;BME280;52491;45.900;6.346;2023-06-22T00:48:22;93797.94;;;28.19;36.10
65359;BME280;52491;45.900;6.346;2023-06-22T00:50:48;93800.56;;;28.24;36.07
65359;BME280;52491;45.900;6.346;2023-06-22T00:53:16;93796.50;;;28.27;35.74
65359;BME280;52491;45.900;6.346;2023-06-22T00:55:44;93783.91;;;28.27;35.78
65359;BME280;52491;45.900;6.346;2023-06-22T00:58:12;93786.56;;;28.27;35.94
65359;BME280;52491;45.900;6.346;2023-06-22T01:00:39;93783.91;;;28.27;36.10
65359;BME280;52491;45.900;6.346;2023-06-22T01:03:05;93781.22;;;28.27;35.80
65359;BME280;52491;45.900;6.346;2023-06-22T01:05:34;93781.22;;;28.27;35.79
65359;BME280;52491;45.900;6.346;2023-06-22T01:08:12;93772.38;;;28.27;35.93
65359;BME280;52491;45.900;6.346;2023-06-22T01:10:51;93777.75;;;28.27;35.88
65359;BME280;52491;45.900;6.346;2023-06-22T01:13:29;93765.72;;;28.24;35.92
65359;BME280;52491;45.900;6.346;2023-06-22T01:16:03;93764.13;;;28.23;36.01
65359;BME280;52491;45.900;6.346;2023-06-22T01:18:31;93755.25;;;28.23;35.91
65359;BME280;52491;45.900;6.346;2023-06-22T01:21:00;93768.66;;;28.23;35.90
65359;BME280;52491;45.900;6.346;2023-06-22T01:23:33;93764.41;;;28.22;35.93
65359;BME280;52491;45.900;6.346;2023-06-22T01:26:06;93767.34;;;28.20;35.70
65359;BME280;52491;45.900;6.346;2023-06-22T01:28:50;93760.63;;;28.23;35.86
65359;BME280;52491;45.900;6.346;2023-06-22T01:31:20;93759.31;;;28.20;35.92
65359;BME280;52491;45.900;6.346;2023-06-22T01:33:51;93752.09;;;28.21;36.03
65359;BME280;52491;45.900;6.346;2023-06-22T01:36:19;93762.00;;;28.20;35.90
65359;BME280;52491;45.900;6.346;2023-06-22T01:38:47;93763.09;;;28.19;35.77
65359;BME280;52491;45.900;6.346;2023-06-22T01:41:13;93752.38;;;28.19;35.82
65359;BME280;52491;45.900;6.346;2023-06-22T01:43:39;93760.41;;;28.19;35.88
65359;BME280;52491;45.900;6.346;2023-06-22T01:46:05;93759.63;;;28.19;35.76
65359;BME280;52491;45.900;6.346;2023-06-22T01:48:31;93769.84;;;28.17;35.98
65359;BME280;52491;45.900;6.346;2023-06-22T01:50:57;93755.63;;;28.16;35.83
65359;BME280;52491;45.900;6.346;2023-06-22T01:53:24;93754.84;;;28.16;35.72
65359;BME280;52491;45.900;6.346;2023-06-22T01:55:50;93757.81;;;28.14;35.77
65359;BME280;52491;45.900;6.346;2023-06-22T01:58:16;93744.13;;;28.16;35.84
65359;BME280;52491;45.900;6.346;2023-06-22T02:00:52;93737.66;;;28.17;35.73
65359;BME280;52491;45.900;6.346;2023-06-22T02:03:32;93730.41;;;28.17;35.77
65359;BME280;52491;45.900;6.346;2023-06-22T02:06:06;93729.63;;;28.17;35.70
65359;BME280;52491;45.900;6.346;2023-06-22T02:08:57;93722.88;;;28.19;35.75
65359;BME280;52491;45.900;6.346;2023-06-22T02:11:25;93720.78;;;28.16;35.65
65359;BME280;52491;45.900;6.346;2023-06-22T02:13:53;93714.91;;;28.14;35.72
65359;BME280;52491;45.900;6.346;2023-06-22T02:16:19;93718.38;;;28.15;35.60
65359;BME280;52491;45.900;6.346;2023-06-22T02:18:49;93713.84;;;28.15;35.67
65359;BME280;52491;45.900;6.346;2023-06-22T02:21:19;93714.91;;;28.14;35.76
65359;BME280;52491;45.900;6.346;2023-06-22T02:23:45;93718.38;;;28.15;35.66
65359;BME280;52491;45.900;6.346;2023-06-22T02:26:11;93705.81;;;28.15;35.62
65359;BME280;52491;45.900;6.346;2023-06-22T02:28:37;93704.19;;;28.14;35.46
65359;BME280;52491;45.900;6.346;2023-06-22T02:31:03;93711.97;;;28.16;35.59
65359;BME280;52491;45.900;6.346;2023-06-22T02:33:28;93707.19;;;28.13;35.54
65359;BME280;52491;45.900;6.346;2023-06-22T02:35:54;93709.88;;;28.13;35.58
65359;BME280;52491;45.900;6.346;2023-06-22T02:38:20;93710.94;;;28.11;35.51
65359;BME280;52491;45.900;6.346;2023-06-22T02:40:46;93707.19;;;28.13;35.58
65359;BME280;52491;45.900;6.346;2023-06-22T02:43:12;93700.22;;;28.11;35.56
65359;BME280;52491;45.900;6.346;2023-06-22T02:45:37;93690.31;;;28.12;35.73
65359;BME280;52491;45.900;6.346;2023-06-22T02:48:03;93697.53;;;28.11;35.62
65359;BME280;52491;45.900;6.346;2023-06-22T02:50:29;93696.72;;;28.11;35.49
65359;BME280;52491;45.900;6.346;2023-06-22T02:52:54;93690.31;;;28.12;35.63
65359;BME280;52491;45.900;6.346;2023-06-22T02:55:20;93687.63;;;28.12;35.54
65359;BME280;52491;45.900;6.346;2023-06-22T02:57:45;93698.34;;;28.12;35.50
65359;BME280;52491;45.900;6.346;2023-06-22T03:00:13;93701.31;;;28.10;35.48
65359;BME280;52491;45.900;6.346;2023-06-22T03:02:47;93695.16;;;28.10;35.52
65359;BME280;52491;45.900;6.346;2023-06-22T03:05:14;93703.47;;;28.08;35.88
65359;BME280;52491;45.900;6.346;2023-06-22T03:07:43;93708.81;;;28.08;35.56
65359;BME280;52491;45.900;6.346;2023-06-22T03:10:10;93710.84;;;27.98;35.86
65359;BME280;52491;45.900;6.346;2023-06-22T03:12:38;93715.84;;;27.85;36.07
65359;BME280;52491;45.900;6.346;2023-06-22T03:15:12;93710.28;;;27.82;36.14
65359;BME280;52491;45.900;6.346;2023-06-22T03:17:39;93723.16;;;27.80;36.33
65359;BME280;52491;45.900;6.346;2023-06-22T03:20:06;93705.75;;;27.77;36.25
65359;BME280;52491;45.900;6.346;2023-06-22T03:22:39;93707.34;;;27.78;36.34
65359;BME280;52491;45.900;6.346;2023-06-22T03:25:07;93705.75;;;27.77;36.35
65359;BME280;52491;45.900;6.346;2023-06-22T03:27:39;93702.28;;;27.77;36.35
65359;BME280;52491;45.900;6.346;2023-06-22T03:30:08;93700.38;;;27.77;36.29
65359;BME280;52491;45.900;6.346;2023-06-22T03:32:34;93692.66;;;27.76;36.23
65359;BME280;52491;45.900;6.346;2023-06-22T03:35:00;93694.25;;;27.77;36.41
65359;BME280;52491;45.900;6.346;2023-06-22T03:37:26;93698.50;;;27.78;36.28
65359;BME280;52491;45.900;6.346;2023-06-22T03:39:52;93684.94;;;27.93;36.10
65359;BME280;52491;45.900;6.346;2023-06-22T03:42:18;93679.19;;;27.81;36.36
65359;BME280;52491;45.900;6.346;2023-06-22T03:44:43;93680.03;;;27.81;36.36
65359;BME280;52491;45.900;6.346;2023-06-22T03:47:09;93683.19;;;27.83;36.49
65359;BME280;52491;45.900;6.346;2023-06-22T03:49:35;93693.91;;;27.83;36.46
65359;BME280;52491;45.900;6.346;2023-06-22T03:52:02;93702.72;;;27.84;36.48
65359;BME280;52491;45.900;6.346;2023-06-22T03:54:29;93691.53;;;27.82;36.34
65359;BME280;52491;45.900;6.346;2023-06-22T03:56:56;93691.81;;;27.80;36.43
65359;BME280;52491;45.900;6.346;2023-06-22T03:59:22;93700.94;;;27.79;36.38
65359;BME280;52491;45.900;6.346;2023-06-22T04:01:48;93700.13;;;27.79;36.35
65359;BME280;52491;45.900;6.346;2023-06-22T04:04:14;93701.97;;;27.78;36.38
65359;BME280;52491;45.900;6.346;2023-06-22T04:06:39;93701.97;;;27.78;36.39
65359;BME280;52491;45.900;6.346;2023-06-22T04:09:08;93710.00;;;27.78;36.27
65359;BME280;52491;45.900;6.346;2023-06-22T04:11:33;93722.13;;;27.76;36.19
65359;BME280;52491;45.900;6.346;2023-06-22T04:13:59;93737.88;;;27.77;36.40
65359;BME280;52491;45.900;6.346;2023-06-22T04:16:25;93750.19;;;27.78;36.55
65359;BME280;52491;45.900;6.346;2023-06-22T04:18:51;93753.34;;;27.85;36.32
65359;BME280;52491;45.900;6.346;2023-06-22T04:21:16;93768.78;;;27.94;36.08
65359;BME280;52491;45.900;6.346;2023-06-22T04:23:42;93776.56;;;27.95;36.22
65359;BME280;52491;45.900;6.346;2023-06-22T04:26:08;93788.88;;;27.96;35.98
65359;BME280;52491;45.900;6.346;2023-06-22T04:28:33;93779.72;;;27.97;36.31
65359;BME280;52491;45.900;6.346;2023-06-22T04:31:03;93804.63;;;27.98;36.10
65359;BME280;52491;45.900;6.346;2023-06-22T04:33:29;93812.69;;;27.98;36.37
65359;BME280;52491;45.900;6.346;2023-06-22T04:35:55;93839.00;;;27.96;36.17
65359;BME280;52491;45.900;6.346;2023-06-22T04:38:26;93883.50;;;27.92;36.32
65359;BME280;52491;45.900;6.346;2023-06-22T04:40:52;93899.91;;;27.85;36.62
65359;BME280;52491;45.900;6.346;2023-06-22T04:43:19;93878.53;;;27.80;36.62
65359;BME280;52491;45.900;6.346;2023-06-22T04:45:44;93897.84;;;27.77;36.62
65359;BME280;52491;45.900;6.346;2023-06-22T04:48:10;93897.59;;;27.73;36.50
65359;BME280;52491;45.900;6.346;2023-06-22T04:50:41;93939.94;;;27.71;36.51
65359;BME280;52491;45.900;6.346;2023-06-22T04:53:06;93936.78;;;27.64;36.71
65359;BME280;52491;45.900;6.346;2023-06-22T04:55:32;93960.66;;;27.60;36.69
65359;BME280;52491;45.900;6.346;2023-06-22T04:57:58;93951.03;;;27.59;36.93
65359;BME280;52491;45.900;6.346;2023-06-22T05:00:30;93984.22;;;27.58;37.63
65359;BME280;52491;45.900;6.346;2023-06-22T05:02:57;94008.09;;;27.55;37.97
65359;BME280;52491;45.900;6.346;2023-06-22T05:05:23;94034.34;;;27.53;38.16
65359;BME280;52491;45.900;6.346;2023-06-22T05:07:51;94035.97;;;27.54;38.16
65359;BME280;52491;45.900;6.346;2023-06-22T05:10:19;94030.88;;;27.52;38.67
65359;BME280;52491;45.900;6.346;2023-06-22T05:12:46;94047.75;;;27.53;39.00
65359;BME280;52491;45.900;6.346;2023-06-22T05:15:13;94049.91;;;27.51;39.13
65359;BME280;52491;45.900;6.346;2023-06-22T05:17:40;94052.63;;;27.45;39.54
65359;BME280;52491;45.900;6.346;2023-06-22T05:20:16;94060.13;;;27.43;39.98
65359;BME280;52491;45.900;6.346;2023-06-22T05:22:44;94047.81;;;27.42;40.40
65359;BME280;52491;45.900;6.346;2023-06-22T05:25:10;94047.81;;;27.42;40.32
65359;BME280;52491;45.900;6.346;2023-06-22T05:27:37;94052.66;;;27.40;40.48
65359;BME280;52491;45.900;6.346;2023-06-22T05:30:06;94051.06;;;27.39;40.87
65359;BME280;52491;45.900;6.346;2023-06-22T05:32:32;94051.31;;;27.38;41.13
65359;BME280;52491;45.900;6.346;2023-06-22T05:34:59;94050.25;;;27.39;41.38
65359;BME280;52491;45.900;6.346;2023-06-22T05:37:24;94051.84;;;27.40;41.43
65359;BME280;52491;45.900;6.346;2023-06-22T05:39:50;94060.94;;;27.39;41.59
65359;BME280;52491;45.900;6.346;2023-06-22T05:42:16;94062.28;;;27.41;41.52
65359;BME280;52491;45.900;6.346;2023-06-22T05:44:41;94058.53;;;27.42;41.67
65359;BME280;52491;45.900;6.346;2023-06-22T05:47:07;94066.56;;;27.42;41.68
65359;BME280;52491;45.900;6.346;2023-06-22T05:49:32;94059.59;;;27.41;41.72
65359;BME280;52491;45.900;6.346;2023-06-22T05:51:59;94055.06;;;27.42;41.72
65359;BME280;52491;45.900;6.346;2023-06-22T05:54:26;94042.47;;;27.42;41.52
65359;BME280;52491;45.900;6.346;2023-06-22T05:56:52;94031.19;;;27.45;41.52
65359;BME280;52491;45.900;6.346;2023-06-22T05:59:18;94024.50;;;27.48;41.42
65359;BME280;52491;45.900;6.346;2023-06-22T06:01:43;94022.31;;;27.50;41.32
65359;BME280;52491;45.900;6.346;2023-06-22T06:04:09;94022.06;;;27.52;41.10
65359;BME280;52491;45.900;6.346;2023-06-22T06:06:34;94002.75;;;27.55;41.03
65359;BME280;52491;45.900;6.346;2023-06-22T06:09:03;93982.13;;;27.55;41.11
65359;BME280;52491;45.900;6.346;2023-06-22T06:11:29;93957.75;;;27.57;40.96
65359;BME280;52491;45.900;6.346;2023-06-22T06:13:55;93943.78;;;27.60;40.96
65359;BME280;52491;45.900;6.346;2023-06-22T06:16:22;93949.69;;;27.62;40.79
65359;BME280;52491;45.900;6.346;2023-06-22T06:18:47;93960.38;;;27.62;40.84
65359;BME280;52491;45.900;6.346;2023-06-22T06:21:15;93951.25;;;27.63;40.70
65359;BME280;52491;45.900;6.346;2023-06-22T06:23:40;93948.31;;;27.64;40.69
65359;BME280;52491;45.900;6.346;2023-06-22T06:26:06;93963.00;;;27.67;40.54
65359;BME280;52491;45.900;6.346;2023-06-22T06:28:32;93966.50;;;27.67;40.55
65359;BME280;52491;45.900;6.346;2023-06-22T06:30:58;93961.94;;;27.68;40.64
65359;BME280;52491;45.900;6.346;2023-06-22T06:33:24;93965.13;;;27.70;40.42
65359;BME280;52491;45.900;6.346;2023-06-22T06:35:49;93987.84;;;27.73;40.35
65359;BME280;52491;45.900;6.346;2023-06-22T06:38:15;93986.00;;;27.73;40.35
65359;BME280;52491;45.900;6.346;2023-06-22T06:40:40;93976.88;;;27.74;40.47
65359;BME280;52491;45.900;6.346;2023-06-22T06:43:06;93960.53;;;27.76;40.34
65359;BME280;52491;45.900;6.346;2023-06-22T06:45:32;93948.72;;;27.77;40.36
65359;BME280;52491;45.900;6.346;2023-06-22T06:47:59;93968.28;;;27.77;40.23
65359;BME280;52491;45.900;6.346;2023-06-22T06:50:25;93966.16;;;27.79;40.19
65359;BME280;52491;45.900;6.346;2023-06-22T06:52:50;93966.16;;;27.79;40.26
65359;BME280;52491;45.900;6.346;2023-06-22T06:55:17;93977.41;;;27.81;40.19
65359;BME280;52491;45.900;6.346;2023-06-22T06:57:43;93996.94;;;27.82;40.22
65359;BME280;52491;45.900;6.346;2023-06-22T07:00:12;93982.47;;;27.83;40.32
65359;BME280;52491;45.900;6.346;2023-06-22T07:02:43;93960.22;;;27.82;40.37
65359;BME280;52491;45.900;6.346;2023-06-22T07:05:10;93943.34;;;27.82;40.32
65359;BME280;52491;45.900;6.346;2023-06-22T07:07:36;93928.34;;;27.81;40.39
65359;BME280;52491;45.900;6.346;2023-06-22T07:10:03;93924.88;;;27.80;40.09
65359;BME280;52491;45.900;6.346;2023-06-22T07:12:29;93926.50;;;27.81;40.26
65359;BME280;52491;45.900;6.346;2023-06-22T07:15:04;93938.28;;;27.80;40.27
65359;BME280;52491;45.900;6.346;2023-06-22T07:17:30;93928.66;;;27.79;40.27
65359;BME280;52491;45.900;6.346;2023-06-22T07:19:55;93929.44;;;27.80;40.03
65359;BME280;52491;45.900;6.346;2023-06-22T07:22:21;93934.78;;;27.80;40.26
65359;BME280;52491;45.900;6.346;2023-06-22T07:24:46;93923.28;;;27.79;40.33
65359;BME280;52491;45.900;6.346;2023-06-22T07:27:12;93925.66;;;27.81;40.37
65359;BME280;52491;45.900;6.346;2023-06-22T07:29:38;93919.50;;;27.80;40.21
65359;BME280;52491;45.900;6.346;2023-06-22T07:32:06;93906.91;;;27.81;40.32
65359;BME280;52491;45.900;6.346;2023-06-22T07:34:31;93899.69;;;27.81;40.09
65359;BME280;52491;45.900;6.346;2023-06-22T07:36:58;93897.03;;;27.81;40.05
65359;BME280;52491;45.900;6.346;2023-06-22T07:39:24;93892.47;;;27.82;40.38
65359;BME280;52491;45.900;6.346;2023-06-22T07:41:51;93884.41;;;27.82;40.42
65359;BME280;52491;45.900;6.346;2023-06-22T07:44:17;93891.38;;;27.83;40.31
65359;BME280;52491;45.900;6.346;2023-06-22T07:46:43;93898.31;;;27.84;40.26
65359;BME280;52491;45.900;6.346;2023-06-22T07:49:08;93895.63;;;27.84;40.36
65359;BME280;52491;45.900;6.346;2023-06-22T07:51:34;93895.88;;;27.87;40.44
65359;BME280;52491;45.900;6.346;2023-06-22T07:54:00;93882.47;;;27.87;40.28
65359;BME280;52491;45.900;6.346;2023-06-22T07:56:25;93886.75;;;27.88;40.32
65359;BME280;52491;45.900;6.346;2023-06-22T07:58:51;93890.22;;;27.89;40.19
65359;BME280;52491;45.900;6.346;2023-06-22T08:01:17;93888.63;;;27.88;40.29
65359;BME280;52491;45.900;6.346;2023-06-22T08:03:44;93892.09;;;27.88;40.11
65359;BME280;52491;45.900;6.346;2023-06-22T08:06:10;93907.38;;;27.88;40.21
65359;BME280;52491;45.900;6.346;2023-06-22T08:08:36;93886.75;;;27.88;40.34
65359;BME280;52491;45.900;6.346;2023-06-22T08:11:02;93882.47;;;27.87;40.34
65359;BME280;52491;45.900;6.346;2023-06-22T08:13:28;93883.28;;;27.88;40.13
65359;BME280;52491;45.900;6.346;2023-06-22T08:15:54;93881.38;;;27.88;40.50
65359;BME280;52491;45.900;6.346;2023-06-22T08:18:19;93894.78;;;27.88;40.07
65359;BME280;52491;45.900;6.346;2023-06-22T08:20:45;93916.00;;;27.85;40.46
65359;BME280;52491;45.900;6.346;2023-06-22T08:23:11;93927.13;;;27.68;40.74
65359;BME280;52491;45.900;6.346;2023-06-22T08:25:36;93907.84;;;27.66;40.90
65359;BME280;52491;45.900;6.346;2023-06-22T08:28:03;93940.28;;;27.64;40.88
65359;BME280;52491;45.900;6.346;2023-06-22T08:30:28;93955.81;;;27.62;40.89
65359;BME280;52491;45.900;6.346;2023-06-22T08:32:54;93960.38;;;27.62;40.93
65359;BME280;52491;45.900;6.346;2023-06-22T08:35:22;93941.34;;;27.63;40.86
65359;BME280;52491;45.900;6.346;2023-06-22T08:37:48;93986.09;;;27.63;41.00
65359;BME280;52491;45.900;6.346;2023-06-22T08:40:20;94001.34;;;27.62;41.12
65359;BME280;52491;45.900;6.346;2023-06-22T08:42:47;93978.31;;;27.61;40.71
65359;BME280;52491;45.900;6.346;2023-06-22T08:45:13;93986.88;;;27.63;40.76
65359;BME280;52491;45.900;6.346;2023-06-22T08:47:39;93970.69;;;27.79;40.28
65359;BME280;52491;45.900;6.346;2023-06-22T08:50:07;93956.75;;;27.82;40.29
65359;BME280;52491;45.900;6.346;2023-06-22T08:52:34;93957.53;;;27.82;40.37
65359;BME280;52491;45.900;6.346;2023-06-22T08:54:59;93953.78;;;27.83;40.07
65359;BME280;52491;45.900;6.346;2023-06-22T08:57:25;93928.88;;;27.83;40.08
65359;BME280;52491;45.900;6.346;2023-06-22T08:59:51;93914.38;;;27.84;40.01
65359;BME280;52491;45.900;6.346;2023-06-22T09:02:23;93893.78;;;27.84;39.95
65359;BME280;52491;45.900;6.346;2023-06-22T09:04:49;93897.50;;;27.83;39.94
65359;BME280;52491;45.900;6.346;2023-06-22T09:07:21;93908.22;;;27.83;39.86
65359;BME280;52491;45.900;6.346;2023-06-22T09:09:49;93921.63;;;27.83;39.88
65359;BME280;52491;45.900;6.346;2023-06-22T09:12:15;93952.72;;;27.84;39.77
65359;BME280;52491;45.900;6.346;2023-06-22T09:14:40;93951.09;;;27.83;39.87
65359;BME280;52491;45.900;6.346;2023-06-22T09:17:06;93945.47;;;27.85;39.87
65359;BME280;52491;45.900;6.346;2023-06-22T09:19:31;93947.06;;;27.86;39.78
65359;BME280;52491;45.900;6.346;2023-06-22T09:21:57;93961.53;;;27.85;39.73
65359;BME280;52491;45.900;6.346;2023-06-22T09:24:23;93961.25;;;27.86;39.69
65359;BME280;52491;45.900;6.346;2023-06-22T09:26:48;93960.47;;;27.86;39.75
65359;BME280;52491;45.900;6.346;2023-06-22T09:29:14;93962.34;;;27.85;39.67
65359;BME280;52491;45.900;6.346;2023-06-22T09:31:39;93947.06;;;27.86;39.57
65359;BME280;52491;45.900;6.346;2023-06-22T09:34:05;93927.25;;;27.87;39.68
65359;BME280;52491;45.900;6.346;2023-06-22T09:36:30;93907.66;;;27.86;39.68
65359;BME280;52491;45.900;6.346;2023-06-22T09:38:56;93902.81;;;27.88;39.56
65359;BME280;52491;45.900;6.346;2023-06-22T09:41:24;93900.16;;;27.88;39.50
65359;BME280;52491;45.900;6.346;2023-06-22T09:43:49;93892.91;;;27.89;39.66
65359;BME280;52491;45.900;6.346;2023-06-22T09:46:16;93893.69;;;27.89;39.63
65359;BME280;52491;45.900;6.346;2023-06-22T09:48:41;93886.47;;;27.90;39.57
65359;BME280;52491;45.900;6.346;2023-06-22T09:51:07;93871.19;;;27.91;39.58
65359;BME280;52491;45.900;6.346;2023-06-22T09:53:32;93865.84;;;27.91;39.50
65359;BME280;52491;45.900;6.346;2023-06-22T09:56:00;93893.41;;;27.91;39.63
65359;BME280;52491;45.900;6.346;2023-06-22T09:58:27;93898.00;;;27.91;39.55
65359;BME280;52491;45.900;6.346;2023-06-22T10:00:52;93893.41;;;27.91;39.71
65359;BME280;52491;45.900;6.346;2023-06-22T10:03:20;93884.28;;;27.92;39.51
65359;BME280;52491;45.900;6.346;2023-06-22T10:05:46;93883.22;;;27.93;39.54
65359;BME280;52491;45.900;6.346;2023-06-22T10:08:11;93876.50;;;27.96;39.21
65359;BME280;52491;45.900;6.346;2023-06-22T10:10:37;93867.09;;;27.98;39.47
65359;BME280;52491;45.900;6.346;2023-06-22T10:13:08;93869.47;;;28.00;39.37
65359;BME280;52491;45.900;6.346;2023-06-22T10:15:37;93877.81;;;27.98;39.28
65359;BME280;52491;45.900;6.346;2023-06-22T10:18:04;93877.00;;;27.98;39.43
65359;BME280;52491;45.900;6.346;2023-06-22T10:20:29;93875.94;;;27.99;39.46
65359;BME280;52491;45.900;6.346;2023-06-22T10:22:55;93883.97;;;27.99;39.42
65359;BME280;52491;45.900;6.346;2023-06-22T10:25:21;93892.00;;;27.99;39.46
65359;BME280;52491;45.900;6.346;2023-06-22T10:27:47;93890.13;;;27.99;39.41
65359;BME280;52491;45.900;6.346;2023-06-22T10:30:13;93898.97;;;28.00;39.24
65359;BME280;52491;45.900;6.346;2023-06-22T10:32:40;93895.22;;;28.01;39.26
65359;BME280;52491;45.900;6.346;2023-06-22T10:35:06;93892.53;;;28.01;39.40
65359;BME280;52491;45.900;6.346;2023-06-22T10:37:32;93872.69;;;28.02;39.34
65359;BME280;52491;45.900;6.346;2023-06-22T10:39:57;93865.44;;;28.02;39.34
65359;BME280;52491;45.900;6.346;2023-06-22T10:42:23;93865.44;;;28.02;39.51
65359;BME280;52491;45.900;6.346;2023-06-22T10:44:48;93860.06;;;28.02;39.36
65359;BME280;52491;45.900;6.346;2023-06-22T10:47:14;93870.78;;;28.02;39.29
65359;BME280;52491;45.900;6.346;2023-06-22T10:49:40;93875.88;;;28.04;39.30
65359;BME280;52491;45.900;6.346;2023-06-22T10:52:07;93869.69;;;28.03;39.51
65359;BME280;52491;45.900;6.346;2023-06-22T10:54:33;93876.66;;;28.04;39.24
65359;BME280;52491;45.900;6.346;2023-06-22T10:56:59;93887.38;;;28.04;39.34
65359;BME280;52491;45.900;6.346;2023-06-22T10:59:25;93890.34;;;28.03;39.34
65359;BME280;52491;45.900;6.346;2023-06-22T11:01:51;93893.53;;;28.05;39.40
65359;BME280;52491;45.900;6.346;2023-06-22T11:04:17;93899.69;;;28.05;39.34
65359;BME280;52491;45.900;6.346;2023-06-22T11:06:43;93912.03;;;28.06;39.33
65359;BME280;52491;45.900;6.346;2023-06-22T11:09:09;93921.13;;;28.05;39.54
65359;BME280;52491;45.900;6.346;2023-06-22T11:11:34;93942.88;;;28.04;39.42
65359;BME280;52491;45.900;6.346;2023-06-22T11:14:00;93971.53;;;28.03;39.47
65359;BME280;52491;45.900;6.346;2023-06-22T11:16:25;93986.03;;;28.02;39.48
65359;BME280;52491;45.900;6.346;2023-06-22T11:18:51;94002.09;;;28.02;39.58
65359;BME280;52491;45.900;6.346;2023-06-22T11:21:16;94008.25;;;28.03;39.39
65359;BME280;52491;45.900;6.346;2023-06-22T11:23:42;93989.50;;;28.03;39.62
65359;BME280;52491;45.900;6.346;2023-06-22T11:26:08;93991.38;;;28.02;39.51
65359;BME280;52491;45.900;6.346;2023-06-22T11:28:33;94000.22;;;28.03;39.45
65359;BME280;52491;45.900;6.346;2023-06-22T11:30:59;93987.91;;;28.02;39.37
65359;BME280;52491;45.900;6.346;2023-06-22T11:33:24;93990.59;;;28.02;39.81
65359;BME280;52491;45.900;6.346;2023-06-22T11:35:50;93981.47;;;28.03;39.53
65359;BME280;52491;45.900;6.346;2023-06-22T11:38:15;93979.88;;;28.02;39.43
65359;BME280;52491;45.900;6.346;2023-06-22T11:40:42;93979.09;;;28.01;39.32
65359;BME280;52491;45.900;6.346;2023-06-22T11:43:07;93978.00;;;28.02;39.51
65359;BME280;52491;45.900;6.346;2023-06-22T11:45:33;93978.28;;;28.01;39.41
65359;BME280;52491;45.900;6.346;2023-06-22T11:47:58;93942.34;;;28.02;39.38
65359;BME280;52491;45.900;6.346;2023-06-22T11:50:24;93919.03;;;28.02;39.47
65359;BME280;52491;45.900;6.346;2023-06-22T11:52:49;93910.19;;;28.02;39.50
65359;BME280;52491;45.900;6.346;2023-06-22T11:55:16;93902.16;;;28.02;39.54
65359;BME280;52491;45.900;6.346;2023-06-22T11:57:55;93908.84;;;28.04;39.28
65359;BME280;52491;45.900;6.346;2023-06-22T12:00:21;93912.56;;;28.03;39.52
65359;BME280;52491;45.900;6.346;2023-06-22T12:02:49;93908.31;;;28.02;39.63
65359;BME280;52491;45.900;6.346;2023-06-22T12:05:16;93927.59;;;28.04;39.71
65359;BME280;52491;45.900;6.346;2023-06-22T12:07:42;93937.22;;;28.05;39.60
65359;BME280;52491;45.900;6.346;2023-06-22T12:10:07;93916.31;;;28.07;39.72
65359;BME280;52491;45.900;6.346;2023-06-22T12:12:33;93912.03;;;28.06;39.56
65359;BME280;52491;45.900;6.346;2023-06-22T12:14:59;93920.88;;;28.07;39.55
65359;BME280;52491;45.900;6.346;2023-06-22T12:17:28;93918.19;;;28.07;39.43
65359;BME280;52491;45.900;6.346;2023-06-22T12:19:54;93909.34;;;28.06;40.08
65359;BME280;52491;45.900;6.346;2023-06-22T12:22:19;93892.44;;;28.06;40.07
65359;BME280;52491;45.900;6.346;2023-06-22T12:24:45;93887.09;;;28.06;40.29
65359;BME280;52491;45.900;6.346;2023-06-22T12:27:10;93890.00;;;28.09;40.38
65359;BME280;52491;45.900;6.346;2023-06-22T12:29:36;93904.22;;;28.10;40.29
65359;BME280;52491;45.900;6.346;2023-06-22T12:32:02;93892.41;;;28.11;40.47
65359;BME280;52491;45.900;6.346;2023-06-22T12:34:27;93889.44;;;28.13;40.61
65359;BME280;52491;45.900;6.346;2023-06-22T12:36:53;93886.47;;;28.14;40.71
65359;BME280;52491;45.900;6.346;2023-06-22T12:39:20;93886.47;;;28.14;40.60
65359;BME280;52491;45.900;6.346;2023-06-22T12:41:45;93887.25;;;28.15;40.19
65359;BME280;52491;45.900;6.346;2023-06-22T12:44:11;93885.41;;;28.15;40.22
65359;BME280;52491;45.900;6.346;2023-06-22T12:46:36;93878.94;;;28.16;40.06
65359;BME280;52491;45.900;6.346;2023-06-22T12:49:06;93876.00;;;28.18;39.99
65359;BME280;52491;45.900;6.346;2023-06-22T12:51:31;93871.41;;;28.18;39.84
65359;BME280;52491;45.900;6.346;2023-06-22T12:53:57;93874.09;;;28.18;40.01
65359;BME280;52491;45.900;6.346;2023-06-22T12:56:22;93868.44;;;28.20;39.72
65359;BME280;52491;45.900;6.346;2023-06-22T12:58:48;93870.06;;;28.21;39.57